Time;durP1;ratioP1;P1;durP2;ratioP2;P2;SDS_P1;SDS_P2;PMS_P1;PMS_P2;Temp;Humidity;BMP_temperature;BMP_pressure;BME280_temperature;BME280_humidity;BME280_pressure;Samples;Min_cycle;Max_cycle;Signal;HPM_P1;HPM_P2
2021/05/26 00:01:32;;;;;;;12.20;3.22;;;;;;;16.38;60.05;99200.50;5056266;28;20446;-79
2021/05/26 00:03:57;;;;;;;7.20;1.98;;;;;;;16.35;60.17;99184.63;5056267;28;20114;-79
2021/05/26 00:06:23;;;;;;;3.78;2.05;;;;;;;16.31;60.61;99156.28;5055740;28;20045;-78
2021/05/26 00:08:49;;;;;;;9.63;2.20;;;;;;;16.22;60.84;99152.75;5037763;28;20130;-82
2021/05/26 00:11:17;;;;;;;10.75;2.08;;;;;;;16.23;60.83;99175.16;5055487;28;20040;-79
2021/05/26 00:13:44;;;;;;;6.53;2.10;;;;;;;16.15;61.14;99172.44;5047692;28;20053;-80
2021/05/26 00:16:10;;;;;;;7.57;2.45;;;;;;;16.21;60.93;99171.75;5035547;28;20048;-81
2021/05/26 00:18:36;;;;;;;10.25;2.28;;;;;;;16.27;61.02;99193.53;5035198;28;20045;-80
2021/05/26 00:21:03;;;;;;;6.38;2.05;;;;;;;16.25;60.40;99198.25;5035221;28;20087;-80
2021/05/26 00:23:29;;;;;;;3.28;1.90;;;;;;;16.31;60.45;99214.78;5034194;28;20100;-80
2021/05/26 00:25:55;;;;;;;3.92;2.00;;;;;;;16.28;60.54;99218.66;5035525;28;20603;-79
2021/05/26 00:28:21;;;;;;;11.80;2.20;;;;;;;16.17;60.45;99236.00;5035384;28;20048;-80
2021/05/26 00:30:52;;;;;;;4.32;2.15;;;;;;;16.13;61.00;99207.63;5034873;28;20045;-79
2021/05/26 00:33:18;;;;;;;6.38;2.72;;;;;;;16.14;60.79;99209.34;5035056;28;20053;-79
2021/05/26 00:35:44;;;;;;;7.07;2.53;;;;;;;16.16;60.60;99217.25;5034996;28;20049;-78
2021/05/26 00:38:10;;;;;;;7.60;2.20;;;;;;;16.21;60.33;99226.56;5034989;28;20084;-79
2021/05/26 00:40:37;;;;;;;3.80;1.90;;;;;;;16.25;60.29;99233.31;5035026;28;20107;-79
2021/05/26 00:43:03;;;;;;;12.25;1.88;;;;;;;16.23;60.36;99231.78;5017501;28;20042;-80
2021/05/26 00:45:29;;;;;;;4.28;1.95;;;;;;;16.24;59.96;99234.31;5033662;28;20407;-77
2021/05/26 00:47:55;;;;;;;4.82;2.00;;;;;;;16.24;60.26;99223.53;5034708;28;20080;-78
2021/05/26 00:50:23;;;;;;;6.35;2.10;;;;;;;16.26;60.31;99235.00;5034774;28;20513;-79
2021/05/26 00:52:49;;;;;;;6.85;1.80;;;;;;;16.21;60.18;99218.47;5017107;28;20133;-79
2021/05/26 00:55:17;;;;;;;7.15;2.00;;;;;;;16.24;60.09;99230.78;5016970;28;20128;-80
2021/05/26 00:57:43;;;;;;;8.48;2.15;;;;;;;16.25;59.92;99217.16;4984297;28;20038;-78
2021/05/26 01:00:11;;;;;;;11.77;2.40;;;;;;;16.27;59.84;99220.50;5034556;28;20083;-79
2021/05/26 01:02:38;;;;;;;2.95;1.90;;;;;;;16.30;59.87;99223.91;5000653;28;20049;-78
2021/05/26 01:05:07;;;;;;;4.15;1.92;;;;;;;16.20;60.12;99235.66;5033267;28;20531;-79
2021/05/26 01:07:35;;;;;;;3.93;2.00;;;;;;;16.15;59.85;99227.19;5016831;28;20568;-78
2021/05/26 01:10:05;;;;;;;13.57;2.17;;;;;;;16.21;60.07;99212.22;5016571;28;20283;-77
2021/05/26 01:12:42;;;;;;;8.50;1.90;;;;;;;16.22;60.08;99212.06;5016967;28;20045;-77
2021/05/26 01:15:09;;;;;;;6.03;2.08;;;;;;;16.21;60.45;99215.78;5000563;28;20135;-78
2021/05/26 01:17:37;;;;;;;;;;;;;;;16.24;60.21;99220.81;4984627;28;20144;-79
2021/05/26 01:20:05;;;;;;;5.13;1.98;;;;;;;16.21;60.50;99215.78;5034145;28;20014;-79
2021/05/26 01:22:33;;;;;;;10.43;2.40;;;;;;;16.12;61.16;99224.81;5000509;28;20064;-80
2021/05/26 01:24:59;;;;;;;5.32;2.13;;;;;;;16.02;61.07;99216.00;4999748;28;20053;-79
2021/05/26 01:27:27;;;;;;;3.17;1.70;;;;;;;16.02;61.51;99211.47;5033932;28;20492;-80
2021/05/26 01:29:55;;;;;;;7.55;2.10;;;;;;;16.11;61.51;99215.06;5016431;28;20063;-80
2021/05/26 01:32:21;;;;;;;3.42;1.98;;;;;;;15.99;61.68;99227.13;5016041;28;20485;-81
2021/05/26 01:34:48;;;;;;;4.85;2.33;;;;;;;15.96;62.23;99216.66;5032386;28;20049;-82
2021/05/26 01:37:15;;;;;;;5.75;2.63;;;;;;;15.83;62.76;99213.53;5015961;28;20071;-81
2021/05/26 01:39:41;;;;;;;4.82;2.20;;;;;;;15.87;62.69;99202.31;5033848;28;20046;-83
2021/05/26 01:42:07;;;;;;;7.38;2.20;;;;;;;15.84;62.70;99212.56;5000025;28;20136;-84
2021/05/26 01:44:35;;;;;;;4.88;2.20;;;;;;;15.75;62.89;99199.00;4983764;28;20076;-82
2021/05/26 01:47:12;;;;;;;10.00;2.38;;;;;;;15.85;62.90;99206.16;4999761;28;20049;-84
2021/05/26 01:49:39;;;;;;;9.93;2.10;;;;;;;15.86;62.90;99205.97;5002432;28;20037;-85
2021/05/26 01:52:05;;;;;;;9.18;1.90;;;;;;;15.83;63.06;99216.22;5048140;28;20038;-83
2021/05/26 01:54:30;;;;;;;3.63;1.90;;;;;;;15.69;63.41;99202.34;5033579;28;20042;-79
2021/05/26 01:56:57;;;;;;;8.80;2.33;;;;;;;15.76;63.00;99208.81;5015726;28;20236;-80
2021/05/26 01:59:27;;;;;;;10.00;2.00;;;;;;;15.69;63.13;99215.84;5033250;28;20053;-81
2021/05/26 02:01:53;;;;;;;11.15;2.38;;;;;;;15.81;62.83;99204.78;5024539;28;20048;-80
2021/05/26 02:04:22;;;;;;;7.68;2.10;;;;;;;15.84;62.78;99210.69;5053392;28;20136;-82
2021/05/26 02:07:06;;;;;;;11.38;2.20;;;;;;;15.91;62.57;99205.50;5035547;28;20135;-83
2021/05/26 02:09:33;;;;;;;7.85;2.30;;;;;;;15.99;61.87;99205.56;5021744;28;20045;-83
2021/05/26 02:14:44;;;;;;;12.93;2.28;;;;;;;15.87;61.92;99225.69;5049589;28;20111;-82
2021/05/26 02:17:10;;;;;;;4.10;2.22;;;;;;;15.84;62.19;99217.94;5072090;28;20501;-82
2021/05/26 02:19:39;;;;;;;3.75;2.30;;;;;;;15.83;61.66;99217.06;5055384;28;20098;-82
2021/05/26 02:22:05;;;;;;;11.82;2.90;;;;;;;15.85;61.49;99230.41;5038749;28;20095;-82
2021/05/26 02:24:33;;;;;;;8.65;2.75;;;;;;;15.97;61.13;99224.56;5071959;28;20048;-82
2021/05/26 02:26:59;;;;;;;7.13;2.40;;;;;;;16.05;60.69;99214.84;5072239;28;20044;-81
2021/05/26 02:29:25;;;;;;;8.07;2.30;;;;;;;16.05;60.45;99226.47;5055296;28;20043;-81
2021/05/26 02:31:51;;;;;;;5.22;2.05;;;;;;;16.02;60.72;99232.19;5072957;28;20483;-85
2021/05/26 02:34:17;;;;;;;14.20;2.90;;;;;;;15.89;60.35;99216.44;5073320;28;20044;-86
2021/05/26 02:36:43;;;;;;;4.43;2.20;;;;;;;15.92;60.50;99215.28;5038410;28;20040;-80
2021/05/26 02:39:10;;;;;;;9.02;2.15;;;;;;;16.01;60.30;99225.94;5072004;28;20376;-84
2021/05/26 02:41:38;;;;;;;7.90;2.00;;;;;;;16.05;60.37;99218.38;5073419;28;20044;-84
2021/05/26 02:44:04;;;;;;;9.57;2.40;;;;;;;16.15;59.72;99227.19;5079970;28;20132;-82
2021/05/26 02:46:31;;;;;;;9.63;2.80;;;;;;;16.15;59.69;99227.19;5087396;28;20124;-82
2021/05/26 02:48:57;;;;;;;10.50;2.75;;;;;;;16.32;59.07;99238.06;5068024;28;20127;-84
2021/05/26 02:51:23;;;;;;;8.02;2.60;;;;;;;16.38;59.24;99226.63;5044353;28;20090;-81
2021/05/26 02:53:51;;;;;;;28.98;3.10;;;;;;;16.36;58.76;99224.09;5076844;28;20048;-78
2021/05/26 02:56:18;;;;;;;8.77;2.28;;;;;;;16.39;58.25;99231.00;5077747;28;20056;-83
2021/05/26 02:59:07;;;;;;;;;;;;;;;16.37;58.35;99241.13;5026257;28;20472;-82
2021/05/26 03:01:52;;;;;;;13.38;2.53;;;;;;;16.43;58.39;99237.75;5077601;28;20260;-84
2021/05/26 03:04:39;;;;;;;4.82;2.67;;;;;;;16.47;58.06;99242.69;5045408;28;20641;-81
2021/05/26 03:07:06;;;;;;;11.55;2.70;;;;;;;16.57;57.92;99242.53;5075990;28;20495;-78
2021/05/26 03:09:32;;;;;;;7.60;2.83;;;;;;;16.70;57.71;99242.94;5058896;28;20139;-86
2021/05/26 03:11:59;;;;;;;10.27;2.85;;;;;;;16.75;57.39;99246.00;5060090;28;20483;-83
2021/05/26 03:14:38;;;;;;;10.10;2.30;;;;;;;16.89;57.28;99246.41;5043753;28;20198;-81
2021/05/26 03:17:09;;;;;;;11.70;2.72;;;;;;;16.96;56.65;99248.25;5077098;28;20047;-87
2021/05/26 03:19:35;;;;;;;9.70;2.85;;;;;;;17.09;56.50;99250.47;5076176;28;20117;-82
2021/05/26 03:22:27;;;;;;;12.75;3.45;;;;;;;17.14;55.80;99244.56;5075028;28;20277;-81
2021/05/26 03:25:13;;;;;;;7.82;2.72;;;;;;;17.16;55.74;99248.78;5061977;28;20126;-90
2021/05/26 03:27:39;;;;;;;9.73;2.58;;;;;;;17.14;55.42;99256.19;5075690;28;20044;-79
2021/05/26 03:30:09;;;;;;;134.38;7.10;;;;;;;17.11;55.52;99271.91;5076114;28;20106;-81
2021/05/26 03:32:36;;;;;;;15.32;2.83;;;;;;;17.03;55.19;99270.03;5075376;28;20044;-90
2021/05/26 03:35:03;;;;;;;8.18;2.60;;;;;;;17.12;55.28;99263.66;5009616;28;20047;-80
2021/05/26 03:37:29;;;;;;;19.05;3.33;;;;;;;17.05;55.09;99265.31;5075000;28;20052;-84
2021/05/26 03:39:56;;;;;;;11.88;2.80;;;;;;;17.08;55.08;99270.38;5059166;28;20479;-82
2021/05/26 03:42:22;;;;;;;6.93;2.50;;;;;;;17.06;55.43;99269.69;5075617;28;20135;-79
2021/05/26 03:44:50;;;;;;;22.95;3.38;;;;;;;17.03;55.52;99270.03;5074752;28;20499;-79
2021/05/26 03:47:17;;;;;;;14.00;2.77;;;;;;;17.24;55.00;99270.41;5074448;28;20048;-81
2021/05/26 03:49:44;;;;;;;11.57;2.75;;;;;;;17.42;54.07;99269.41;5075998;28;20040;-81
2021/05/26 03:52:11;;;;;;;12.23;2.95;;;;;;;17.39;53.88;99272.44;5073706;28;20040;-78
2021/05/26 03:54:42;;;;;;;8.15;2.75;;;;;;;17.39;53.94;99261.63;5074449;28;20545;-82
2021/05/26 03:57:09;;;;;;;14.48;3.30;;;;;;;17.47;54.14;99273.28;5060249;28;20044;-92
2021/05/26 03:59:35;;;;;;;12.85;2.72;;;;;;;17.58;53.84;99269.41;5076793;28;20044;-85
2021/05/26 04:02:01;;;;;;;12.65;2.95;;;;;;;17.70;53.34;99281.56;5041154;28;20082;-84
2021/05/26 04:04:28;;;;;;;11.52;3.30;;;;;;;17.63;53.40;99272.44;5024174;28;20055;-88
2021/05/26 04:06:56;;;;;;;;;;;;;;;17.76;53.08;99268.41;5058816;28;20045;-82
2021/05/26 04:09:24;;;;;;;11.60;2.47;;;;;;;17.67;52.95;99283.75;5058196;28;19924;-83
2021/05/26 04:11:51;;;;;;;12.05;2.85;;;;;;;17.64;53.37;99279.56;5024955;28;20048;-83
2021/05/26 04:14:43;;;;;;;6.82;2.28;;;;;;;17.62;53.16;99283.44;5070103;28;20408;-82
2021/05/26 04:17:22;;;;;;;8.73;2.17;;;;;;;17.55;53.12;99280.53;5078068;28;20040;-85
2021/05/26 04:20:06;;;;;;;5.30;2.00;;;;;;;17.82;53.07;99276.66;5033052;28;20143;-82
2021/05/26 04:22:34;;;;;;;5.32;2.10;;;;;;;18.04;52.41;99274.28;5058185;28;20040;-81
2021/05/26 04:25:01;;;;;;;5.07;1.80;;;;;;;18.17;51.92;99283.56;5073965;28;20106;-82
2021/05/26 04:27:27;;;;;;;6.20;1.95;;;;;;;18.19;51.38;99265.28;5024933;28;20041;-85
2021/05/26 04:29:53;;;;;;;6.55;2.10;;;;;;;17.93;51.97;99270.91;5074841;28;20032;-82
2021/05/26 04:32:19;;;;;;;6.75;1.98;;;;;;;18.10;51.71;99279.00;5042097;28;20045;-85
2021/05/26 04:34:45;;;;;;;17.10;2.10;;;;;;;18.05;51.87;99276.81;5075434;28;20045;-84
2021/05/26 04:37:11;;;;;;;4.25;1.58;;;;;;;18.04;51.60;99280.53;5077424;28;20086;-82
2021/05/26 04:39:37;;;;;;;6.65;1.70;;;;;;;18.02;51.62;99274.47;5064651;28;20060;-85
2021/05/26 04:42:03;;;;;;;8.73;1.83;;;;;;;18.13;51.65;99268.69;5086713;28;20072;-87
2021/05/26 04:44:29;;;;;;;7.25;1.60;;;;;;;18.29;51.33;99277.78;5066748;28;20044;-87
2021/05/26 04:46:56;;;;;;;16.90;2.08;;;;;;;18.38;50.59;99261.31;5078377;28;20490;-87
2021/05/26 04:49:22;;;;;;;3.42;1.50;;;;;;;18.30;50.50;99271.34;5072802;28;20131;-87
2021/05/26 04:51:47;;;;;;;6.65;1.63;;;;;;;18.37;50.57;99280.44;5074003;28;20090;-85
2021/05/26 04:54:13;;;;;;;3.05;1.52;;;;;;;18.29;51.00;99266.97;5072085;28;20068;-86
2021/05/26 04:56:39;;;;;;;4.90;1.65;;;;;;;18.55;50.66;99264.81;5072392;28;20040;-85
2021/05/26 04:59:05;;;;;;;7.85;1.95;;;;;;;18.74;50.26;99265.44;5072833;28;20070;-84
2021/05/26 05:01:31;;;;;;;8.35;1.95;;;;;;;18.76;49.82;99258.81;5074344;28;20051;-85
2021/05/26 05:03:57;;;;;;;4.30;1.73;;;;;;;18.75;49.93;99275.25;5073806;28;20052;-85
2021/05/26 05:06:24;;;;;;;8.88;1.55;;;;;;;18.95;49.52;99268.34;5074369;28;20044;-86
2021/05/26 05:08:50;;;;;;;12.07;2.53;;;;;;;19.03;48.89;99275.59;5074306;28;20048;-85
2021/05/26 05:11:16;;;;;;;2.28;1.40;;;;;;;19.08;49.02;99276.75;5073436;28;20059;-85
2021/05/26 05:13:42;;;;;;;5.05;1.23;;;;;;;19.15;48.48;99263.34;5068748;28;20086;-85
2021/05/26 05:16:08;;;;;;;7.70;1.58;;;;;;;19.09;47.77;99256.75;5053882;28;20048;-86
2021/05/26 05:18:34;;;;;;;6.88;1.65;;;;;;;19.12;47.32;99267.25;5054136;28;20076;-87
2021/05/26 05:21:00;;;;;;;62.33;3.35;;;;;;;19.03;47.12;99260.22;5054501;28;20059;-86
2021/05/26 05:23:26;;;;;;;17.77;1.73;;;;;;;18.72;47.68;99248.53;5054589;28;20044;-87
2021/05/26 05:25:52;;;;;;;11.60;1.60;;;;;;;18.72;48.50;99267.47;5054395;28;20049;-87
2021/05/26 05:28:18;;;;;;;9.82;1.70;;;;;;;18.91;48.23;99272.44;5054230;28;20164;-84
2021/05/26 05:30:43;;;;;;;10.18;1.88;;;;;;;19.06;48.15;99264.41;5055425;28;20052;-82
2021/05/26 05:33:09;;;;;;;7.68;1.38;;;;;;;19.25;47.79;99254.97;5057852;28;20151;-87
2021/05/26 05:35:35;;;;;;;31.75;2.75;;;;;;;19.38;47.12;99268.75;5004910;28;20045;-87
2021/05/26 05:38:01;;;;;;;8.45;1.70;;;;;;;19.40;47.29;99255.84;5055541;28;20039;-87
2021/05/26 05:40:28;;;;;;;11.10;1.50;;;;;;;19.57;46.91;99262.84;5020023;28;20044;-89
2021/05/26 05:42:54;;;;;;;6.00;1.40;;;;;;;19.64;46.68;99263.00;5056898;28;20049;-89
2021/05/26 05:45:19;;;;;;;3.40;1.40;;;;;;;19.64;46.25;99258.41;5054039;28;20041;-88
2021/05/26 05:47:46;;;;;;;11.02;1.60;;;;;;;19.72;45.83;99249.34;5036235;28;20107;-87
2021/05/26 05:50:16;;;;;;;10.15;1.48;;;;;;;19.79;45.59;99254.91;5003243;28;20045;-86
2021/05/26 05:52:43;;;;;;;46.58;3.22;;;;;;;19.70;45.87;99245.97;5037185;28;20033;-88
2021/05/26 05:55:09;;;;;;;8.73;1.60;;;;;;;19.69;45.52;99267.84;5006622;28;20049;-88
2021/05/26 05:57:39;;;;;;;13.40;1.63;;;;;;;19.72;45.42;99256.66;5023640;28;20047;-88
2021/05/26 06:00:06;;;;;;;24.13;2.42;;;;;;;19.76;45.61;99255.25;5062270;28;20037;-87
2021/05/26 06:02:40;;;;;;;11.73;1.60;;;;;;;19.95;45.33;99254.72;5014520;28;20067;-88
2021/05/26 06:05:07;;;;;;;17.67;2.03;;;;;;;20.15;44.24;99257.72;5024308;28;20064;-88
2021/05/26 06:07:33;;;;;;;61.22;5.53;;;;;;;19.96;45.02;99250.97;5006463;28;20416;-86
2021/05/26 06:09:59;;;;;;;4.40;1.27;;;;;;;19.97;43.69;99249.97;5054408;28;20044;-87
2021/05/26 06:12:25;;;;;;;8.43;1.30;;;;;;;19.95;43.91;99262.03;5022540;28;20072;-87
2021/05/26 06:14:51;;;;;;;13.38;1.27;;;;;;;20.22;43.41;99255.94;5046467;28;20538;-87
2021/05/26 06:17:17;;;;;;;9.80;2.03;;;;;;;20.13;43.67;99249.78;5073075;28;20048;-88
2021/05/26 06:19:43;;;;;;;28.30;2.50;;;;;;;20.28;43.19;99265.22;5073468;28;20052;-87
2021/05/26 06:22:09;;;;;;;7.15;1.50;;;;;;;20.15;42.52;99263.16;5071896;28;20047;-87
2021/05/26 06:24:38;;;;;;;4.13;1.40;;;;;;;20.24;43.06;99248.47;5072189;28;20457;-88
2021/05/26 06:27:05;;;;;;;29.08;2.15;;;;;;;20.50;42.14;99258.91;5071714;28;20129;-87
2021/05/26 06:29:31;;;;;;;6.13;1.27;;;;;;;20.41;42.28;99257.25;5073376;28;20043;-86
2021/05/26 06:31:56;;;;;;;7.13;1.40;;;;;;;20.39;42.33;99256.63;5073154;28;20076;-86
2021/05/26 06:34:22;;;;;;;7.93;1.40;;;;;;;20.28;42.66;99251.66;5073427;28;20466;-89
2021/05/26 06:36:49;;;;;;;9.82;1.40;;;;;;;20.18;42.56;99235.66;5073589;28;20554;-89
2021/05/26 06:39:14;;;;;;;7.28;1.10;;;;;;;20.53;42.41;99255.78;5073817;28;20102;-87
2021/05/26 06:41:40;;;;;;;17.27;1.42;;;;;;;20.61;40.61;99260.25;5080972;28;20071;-87
2021/05/26 06:44:06;;;;;;;13.70;1.52;;;;;;;20.72;40.46;99258.94;5085525;28;20044;-88
2021/05/26 06:46:32;;;;;;;35.35;2.58;;;;;;;20.72;40.45;99253.50;5077571;28;20488;-89
2021/05/26 06:48:58;;;;;;;25.13;1.85;;;;;;;20.79;40.11;99241.69;5072395;28;20036;-88
2021/05/26 06:51:24;;;;;;;6.28;1.40;;;;;;;20.75;40.12;99250.41;5073969;28;20056;-87
2021/05/26 06:53:50;;;;;;;8.30;1.40;;;;;;;20.71;39.47;99259.97;5073962;28;20064;-89
2021/05/26 06:56:16;;;;;;;21.55;1.80;;;;;;;20.71;39.40;99246.41;5072469;28;20044;-88
2021/05/26 06:58:42;;;;;;;7.78;1.40;;;;;;;20.81;39.76;99249.66;5073157;28;20048;-88
2021/05/26 07:01:08;;;;;;;14.20;1.60;;;;;;;20.91;39.73;99255.63;5072725;28;20048;-88
2021/05/26 07:03:33;;;;;;;18.13;2.13;;;;;;;21.05;39.94;99252.00;5073533;28;20048;-87
2021/05/26 07:05:59;;;;;;;2.90;1.38;;;;;;;21.08;40.27;99246.19;5073327;28;20072;-88
2021/05/26 07:08:25;;;;;;;4.32;1.52;;;;;;;21.32;39.78;99252.28;5072966;28;20048;-89
2021/05/26 07:10:51;;;;;;;5.25;1.48;;;;;;;21.38;39.55;99254.28;5073115;28;20040;-89
2021/05/26 07:13:17;;;;;;;6.70;1.40;;;;;;;21.49;39.03;99245.59;5071375;28;20174;-88
2021/05/26 07:15:43;;;;;;;5.32;1.20;;;;;;;21.81;38.63;99230.59;5019193;28;20059;-89
2021/05/26 07:18:09;;;;;;;12.82;1.10;;;;;;;21.80;37.99;99266.13;5036660;28;20399;-91
2021/05/26 07:20:35;;;;;;;7.45;1.10;;;;;;;21.92;37.69;99259.09;5053242;28;20047;-93
2021/05/26 07:23:01;;;;;;;3.60;1.38;;;;;;;21.77;37.14;99255.66;5018464;28;20075;-85
2021/05/26 07:25:27;;;;;;;6.93;1.00;;;;;;;21.68;37.88;99246.78;5053244;28;20053;-86
2021/05/26 07:27:54;;;;;;;8.57;1.20;;;;;;;21.75;37.40;99246.84;5051740;28;20041;-86
2021/05/26 07:30:20;;;;;;;17.08;1.52;;;;;;;21.83;37.67;99265.75;5018188;28;20053;-85
2021/05/26 07:32:46;;;;;;;5.88;0.90;;;;;;;21.80;37.62;99252.53;5037335;28;20053;-85
2021/05/26 07:35:12;;;;;;;2.13;1.00;;;;;;;21.97;37.98;99256.66;5056392;28;20147;-86
2021/05/26 07:37:39;;;;;;;5.05;1.35;;;;;;;22.18;37.95;99263.94;5038272;28;20488;-86
2021/05/26 07:40:07;;;;;;;17.65;1.50;;;;;;;22.09;37.06;99251.50;5057033;28;20090;-86
2021/05/26 07:42:33;;;;;;;8.40;1.23;;;;;;;22.19;37.62;99254.75;5007115;28;20044;-87
2021/05/26 07:44:59;;;;;;;3.20;0.90;;;;;;;22.54;37.09;99263.72;5039175;28;20076;-87
2021/05/26 07:47:25;;;;;;;4.95;1.05;;;;;;;22.65;36.70;99264.22;5056692;28;20044;-85
2021/05/26 07:49:52;;;;;;;12.95;1.02;;;;;;;22.52;36.08;99254.91;5038139;28;20037;-85
2021/05/26 07:52:21;;;;;;;2.22;0.90;;;;;;;22.53;36.07;99262.06;4989217;28;20061;-85
2021/05/26 07:54:50;;;;;;;4.90;1.10;;;;;;;22.68;36.68;99252.88;5022824;28;20044;-85
2021/05/26 07:57:16;;;;;;;;;;;;;;;22.78;35.71;99253.34;4989720;28;20041;-85
2021/05/26 07:59:43;;;;;;;12.50;1.23;;;;;;;22.76;34.79;99258.19;5055951;28;20442;-85
2021/05/26 08:02:11;;;;;;;12.85;1.27;;;;;;;22.82;34.97;99268.25;5055866;28;20076;-86
2021/05/26 08:04:37;;;;;;;27.50;1.50;;;;;;;22.77;35.06;99257.97;5021778;28;20163;-85
2021/05/26 08:07:03;;;;;;;10.07;1.55;;;;;;;22.76;35.19;99266.34;5055456;28;20363;-84
2021/05/26 08:09:28;;;;;;;10.93;1.23;;;;;;;22.82;34.79;99260.06;5022293;28;20087;-86
2021/05/26 08:11:54;;;;;;;4.43;0.88;;;;;;;22.99;35.00;99257.88;5055695;28;20049;-85
2021/05/26 08:14:20;;;;;;;8.18;1.00;;;;;;;23.16;34.27;99269.22;5058496;28;20061;-82
2021/05/26 08:16:46;;;;;;;4.45;1.00;;;;;;;23.23;34.50;99257.28;5057975;28;20076;-85
2021/05/26 08:19:12;;;;;;;3.83;1.27;;;;;;;23.44;34.33;99259.00;5054351;28;20519;-84
2021/05/26 08:21:39;;;;;;;6.78;1.10;;;;;;;23.62;33.95;99260.28;5055171;28;20052;-84
2021/05/26 08:24:07;;;;;;;13.20;1.42;;;;;;;23.41;33.93;99258.59;5038264;28;20504;-85
2021/05/26 08:26:32;;;;;;;7.35;1.33;;;;;;;23.50;34.48;99263.63;5038635;28;20060;-84
2021/05/26 08:28:58;;;;;;;11.68;1.88;;;;;;;23.64;34.35;99255.44;5055608;28;20114;-85
2021/05/26 08:31:24;;;;;;;8.93;1.27;;;;;;;23.23;33.87;99260.00;5038025;28;20055;-85
2021/05/26 08:33:50;;;;;;;5.60;1.17;;;;;;;23.21;34.35;99253.09;5055660;28;20048;-83
2021/05/26 08:36:16;;;;;;;5.30;1.20;;;;;;;23.45;34.42;99260.69;5037375;28;20098;-84
2021/05/26 08:38:43;;;;;;;19.92;1.70;;;;;;;23.56;33.53;99261.13;5020891;28;20127;-84
2021/05/26 08:41:10;;;;;;;15.32;1.42;;;;;;;23.51;33.70;99254.41;5053846;28;20127;-85
2021/05/26 08:43:40;;;;;;;8.82;1.70;;;;;;;23.73;33.74;99260.53;5054507;28;20049;-85
2021/05/26 08:46:06;;;;;;;9.95;1.50;;;;;;;23.96;33.18;99245.63;5054853;28;20072;-84
2021/05/26 08:48:32;;;;;;;6.35;1.35;;;;;;;24.19;33.12;99245.16;5037443;28;20049;-85
2021/05/26 08:50:59;;;;;;;6.75;1.48;;;;;;;24.35;32.97;99254.78;5054877;28;20102;-85
2021/05/26 08:53:25;;;;;;;10.27;1.40;;;;;;;24.57;32.68;99236.25;5004885;28;20051;-84
2021/05/26 08:55:51;;;;;;;3.83;1.20;;;;;;;24.77;32.35;99245.19;5054805;28;20045;-85
2021/05/26 08:58:17;;;;;;;8.80;1.10;;;;;;;24.69;32.23;99251.75;5054692;28;20491;-84
2021/05/26 09:00:43;;;;;;;9.48;1.35;;;;;;;24.79;32.24;99245.84;5037055;28;20079;-85
2021/05/26 09:03:09;;;;;;;8.52;1.23;;;;;;;24.82;32.08;99250.00;5036878;28;20059;-87
2021/05/26 09:05:35;;;;;;;6.63;1.55;;;;;;;24.78;30.59;99262.44;5036898;28;20049;-85
2021/05/26 09:08:19;;;;;;;16.58;1.45;;;;;;;24.59;31.26;99247.78;5054610;28;20080;-85
2021/05/26 09:10:46;;;;;;;9.02;1.30;;;;;;;24.64;31.03;99248.00;5037119;28;20049;-86
2021/05/26 09:13:35;;;;;;;7.70;1.90;;;;;;;24.80;30.43;99247.50;5037081;28;20132;-85
2021/05/26 09:16:02;;;;;;;9.05;1.05;;;;;;;25.15;29.99;99245.25;5037195;28;20049;-86
2021/05/26 09:18:28;;;;;;;6.80;1.95;;;;;;;25.15;30.37;99241.66;5020500;28;20510;-86
2021/05/26 09:20:56;;;;;;;5.70;1.13;;;;;;;25.62;30.37;99250.41;5054900;28;20143;-85
2021/05/26 09:23:29;;;;;;;6.28;0.98;;;;;;;25.70;29.81;99252.88;5054692;28;20408;-85
2021/05/26 09:25:59;;;;;;;3.63;1.30;;;;;;;26.00;29.60;99246.75;5054585;28;20056;-84
2021/05/26 09:28:35;;;;;;;5.13;1.05;;;;;;;26.07;29.87;99240.13;5054473;28;20118;-85
2021/05/26 09:31:05;;;;;;;1.88;0.90;;;;;;;26.05;29.14;99244.16;5021137;28;20052;-85
2021/05/26 09:33:41;;;;;;;8.63;1.10;;;;;;;25.83;29.67;99225.38;5054236;28;20051;-84
2021/05/26 09:36:11;;;;;;;10.73;1.08;;;;;;;25.61;28.93;99237.75;5003445;28;20072;-83
2021/05/26 09:39:04;;;;;;;34.08;2.10;;;;;;;25.06;29.66;99241.06;5020174;28;20096;-84
2021/05/26 09:41:34;;;;;;;7.03;1.30;;;;;;;24.68;29.93;99244.63;5035972;28;20060;-86
2021/05/26 09:44:00;;;;;;;13.18;1.50;;;;;;;24.71;30.39;99243.31;5023920;28;20044;-84
2021/05/26 09:46:30;;;;;;;11.70;2.08;;;;;;;24.50;29.89;99251.84;5036431;28;20052;-85
2021/05/26 09:49:17;;;;;;;10.00;1.60;;;;;;;24.05;30.56;99249.78;5039014;28;20056;-84
2021/05/26 09:51:55;;;;;;;4.90;1.20;;;;;;;24.21;31.03;99248.50;5036213;28;20047;-86
2021/05/26 09:54:25;;;;;;;2.70;1.20;;;;;;;24.71;30.67;99254.25;5036724;28;20047;-85
2021/05/26 09:56:51;;;;;;;7.63;1.38;;;;;;;25.15;30.41;99260.81;5035904;28;20139;-84
2021/05/26 09:59:18;;;;;;;11.55;1.63;;;;;;;25.76;29.27;99251.94;5053802;28;20401;-85
2021/05/26 10:01:43;;;;;;;2.72;1.20;;;;;;;26.07;28.71;99259.31;5020103;28;20500;-84
2021/05/26 10:04:09;;;;;;;10.98;1.65;;;;;;;26.47;28.69;99249.84;5053248;28;20132;-84
2021/05/26 10:06:38;;;;;;;9.93;1.50;;;;;;;26.67;26.24;99225.78;5036122;28;20131;-84
2021/05/26 10:09:24;;;;;;;39.23;2.63;;;;;;;26.68;26.44;99256.78;5038674;28;20420;-84
2021/05/26 10:12:13;;;;;;;12.73;1.98;;;;;;;26.85;26.97;99252.34;5034938;28;20275;-85
2021/05/26 10:14:39;;;;;;;5.35;1.55;;;;;;;26.87;26.78;99262.03;5041297;28;20052;-86
2021/05/26 10:17:05;;;;;;;6.38;1.65;;;;;;;26.97;25.94;99257.88;5055203;28;20040;-85
2021/05/26 10:19:31;;;;;;;10.55;1.70;;;;;;;26.93;27.29;99242.94;5055107;28;20131;-84
2021/05/26 10:21:57;;;;;;;6.80;2.00;;;;;;;27.08;27.67;99254.34;5073128;28;20133;-85
2021/05/26 10:24:23;;;;;;;18.05;2.42;;;;;;;27.63;27.42;99247.88;5056528;28;20048;-87
2021/05/26 10:26:50;;;;;;;9.25;1.90;;;;;;;28.24;27.11;99250.19;5039016;28;20044;-84
2021/05/26 10:29:29;;;;;;;11.25;2.13;;;;;;;28.71;25.70;99257.59;5071479;28;20063;-83
2021/05/26 10:31:58;;;;;;;41.88;3.25;;;;;;;28.63;25.42;99252.47;5072898;28;20048;-84
2021/05/26 10:34:42;;;;;;;15.15;2.15;;;;;;;28.86;25.96;99237.81;5079381;28;20048;-84
2021/05/26 10:37:13;;;;;;;6.00;1.85;;;;;;;28.80;25.98;99262.44;5083054;28;20135;-83
2021/05/26 10:39:39;;;;;;;32.33;3.15;;;;;;;28.58;26.61;99247.66;5074014;28;20119;-86
2021/05/26 10:42:07;;;;;;;7.25;2.00;;;;;;;28.60;26.84;99264.78;5073334;28;20056;-86
2021/05/26 10:45:02;;;;;;;6.65;1.90;;;;;;;28.92;25.90;99247.81;5022256;28;20082;-85
2021/05/26 10:47:37;;;;;;;21.35;2.42;;;;;;;28.63;25.84;99253.31;5070433;28;20048;-84
2021/05/26 10:50:14;;;;;;;11.52;2.20;;;;;;;28.86;26.00;99235.06;5072534;28;20075;-86
2021/05/26 10:52:55;;;;;;;23.35;2.33;;;;;;;29.46;25.84;99251.09;5074497;28;20487;-83
2021/05/26 10:55:37;;;;;;;10.00;2.10;;;;;;;29.48;25.85;99247.00;5079413;28;20045;-82
2021/05/26 10:58:24;;;;;;;13.48;3.08;;;;;;;30.15;25.44;99248.09;5075452;28;20099;-86
2021/05/26 11:00:57;;;;;;;7.15;2.25;;;;;;;29.90;24.88;99254.91;5074723;28;20045;-86
2021/05/26 11:06:10;;;;;;;16.58;2.78;;;;;;;30.85;23.89;99250.22;5077249;28;20048;-84
2021/05/26 11:08:41;;;;;;;5.38;1.88;;;;;;;30.12;24.94;99254.13;5079703;28;20048;-84
2021/05/26 11:11:25;;;;;;;10.25;2.22;;;;;;;30.05;25.08;99257.03;5080775;28;20044;-84
2021/05/26 11:14:04;;;;;;;3.85;1.92;;;;;;;31.09;24.20;99258.22;5070457;28;20463;-85
2021/05/26 11:16:49;;;;;;;11.60;2.20;;;;;;;31.28;23.72;99273.34;5038827;28;20083;-85
2021/05/26 11:19:28;;;;;;;9.65;1.77;;;;;;;31.06;23.24;99255.97;5038437;28;20049;-85
2021/05/26 11:21:58;;;;;;;15.30;2.00;;;;;;;30.97;22.53;99258.38;5022952;28;20515;-85
2021/05/26 11:24:25;;;;;;;4.55;1.35;;;;;;;31.34;22.33;99264.06;5038249;28;20056;-84
2021/05/26 11:26:52;;;;;;;8.43;1.70;;;;;;;31.71;22.23;99260.53;5056619;28;20055;-83
2021/05/26 11:29:31;;;;;;;16.38;2.20;;;;;;;31.72;22.31;99276.03;5056210;28;20087;-85
2021/05/26 11:32:26;;;;;;;8.50;1.98;;;;;;;31.31;23.10;99269.25;5038490;28;20087;-85
2021/05/26 11:34:54;;;;;;;8.82;2.13;;;;;;;31.33;22.90;99254.13;5046810;28;20044;-83
2021/05/26 11:37:35;;;;;;;15.40;1.90;;;;;;;30.63;23.59;99244.69;5038227;28;20041;-83
2021/05/26 11:40:03;;;;;;;7.32;1.70;;;;;;;30.94;23.43;99247.84;5038379;28;20052;-83
2021/05/26 11:42:30;;;;;;;6.90;1.67;;;;;;;31.01;23.50;99253.16;5055792;28;20056;-83
2021/05/26 11:45:00;;;;;;;5.43;2.25;;;;;;;31.35;22.84;99245.56;5037627;28;20037;-83